sensor_id;sensor_type;location;lat;lon;timestamp;P1;durP1;ratioP1;P2;durP2;ratioP2
74620;SDS011;63125;47.546;19.254;2022-09-20T00:01:41;13.10;;;8.77;;
74620;SDS011;63125;47.546;19.254;2022-09-20T00:04:06;11.88;;;8.55;;
74620;SDS011;63125;47.546;19.254;2022-09-20T00:06:33;10.57;;;8.30;;
74620;SDS011;63125;47.546;19.254;2022-09-20T00:08:58;12.25;;;8.68;;
74620;SDS011;63125;47.546;19.254;2022-09-20T00:11:26;12.05;;;8.90;;
74620;SDS011;63125;47.546;19.254;2022-09-20T00:13:53;11.18;;;9.02;;
74620;SDS011;63125;47.546;19.254;2022-09-20T00:16:22;11.45;;;8.65;;
74620;SDS011;63125;47.546;19.254;2022-09-20T00:18:48;11.05;;;7.30;;
74620;SDS011;63125;47.546;19.254;2022-09-20T00:21:15;9.57;;;6.97;;
74620;SDS011;63125;47.546;19.254;2022-09-20T00:23:41;14.15;;;7.47;;
74620;SDS011;63125;47.546;19.254;2022-09-20T00:26:06;8.40;;;6.40;;
74620;SDS011;63125;47.546;19.254;2022-09-20T00:28:31;8.88;;;6.05;;
74620;SDS011;63125;47.546;19.254;2022-09-20T00:30:58;9.13;;;6.22;;
74620;SDS011;63125;47.546;19.254;2022-09-20T00:33:24;8.07;;;5.93;;
74620;SDS011;63125;47.546;19.254;2022-09-20T00:36:09;7.15;;;4.70;;
74620;SDS011;63125;47.546;19.254;2022-09-20T00:38:34;6.05;;;3.65;;
74620;SDS011;63125;47.546;19.254;2022-09-20T00:40:59;8.10;;;3.58;;
74620;SDS011;63125;47.546;19.254;2022-09-20T00:43:35;6.43;;;3.90;;
74620;SDS011;63125;47.546;19.254;2022-09-20T00:46:01;5.07;;;3.00;;
74620;SDS011;63125;47.546;19.254;2022-09-20T00:48:27;4.88;;;2.65;;
74620;SDS011;63125;47.546;19.254;2022-09-20T00:50:55;7.93;;;2.53;;
74620;SDS011;63125;47.546;19.254;2022-09-20T00:53:24;4.32;;;2.80;;
74620;SDS011;63125;47.546;19.254;2022-09-20T00:58:16;4.45;;;2.53;;
74620;SDS011;63125;47.546;19.254;2022-09-20T01:00:42;4.68;;;2.20;;
74620;SDS011;63125;47.546;19.254;2022-09-20T01:03:08;5.53;;;2.65;;
74620;SDS011;63125;47.546;19.254;2022-09-20T01:05:34;4.88;;;2.42;;
74620;SDS011;63125;47.546;19.254;2022-09-20T01:08:00;4.95;;;2.47;;
74620;SDS011;63125;47.546;19.254;2022-09-20T01:10:26;6.15;;;2.42;;
74620;SDS011;63125;47.546;19.254;2022-09-20T01:12:52;4.65;;;2.38;;
74620;SDS011;63125;47.546;19.254;2022-09-20T01:15:17;4.82;;;2.25;;
74620;SDS011;63125;47.546;19.254;2022-09-20T01:17:45;4.95;;;2.38;;
74620;SDS011;63125;47.546;19.254;2022-09-20T01:27:41;5.10;;;2.30;;
74620;SDS011;63125;47.546;19.254;2022-09-20T01:30:07;3.65;;;2.35;;
74620;SDS011;63125;47.546;19.254;2022-09-20T01:32:50;5.00;;;2.53;;
74620;SDS011;63125;47.546;19.254;2022-09-20T01:35:16;5.15;;;2.60;;
74620;SDS011;63125;47.546;19.254;2022-09-20T01:37:48;5.38;;;2.22;;
74620;SDS011;63125;47.546;19.254;2022-09-20T01:40:38;5.22;;;2.28;;
74620;SDS011;63125;47.546;19.254;2022-09-20T01:45:38;4.60;;;2.45;;
74620;SDS011;63125;47.546;19.254;2022-09-20T01:58:05;4.07;;;2.00;;
74620;SDS011;63125;47.546;19.254;2022-09-20T02:03:12;4.05;;;2.30;;
74620;SDS011;63125;47.546;19.254;2022-09-20T02:11:28;6.50;;;2.65;;
74620;SDS011;63125;47.546;19.254;2022-09-20T02:14:15;4.10;;;2.15;;
74620;SDS011;63125;47.546;19.254;2022-09-20T02:22:26;5.57;;;2.53;;
74620;SDS011;63125;47.546;19.254;2022-09-20T02:27:50;5.15;;;2.83;;
74620;SDS011;63125;47.546;19.254;2022-09-20T02:43:43;8.38;;;2.97;;
74620;SDS011;63125;47.546;19.254;2022-09-20T02:49:07;6.50;;;3.35;;
74620;SDS011;63125;47.546;19.254;2022-09-20T02:51:43;6.72;;;3.65;;
74620;SDS011;63125;47.546;19.254;2022-09-20T02:59:25;10.48;;;4.75;;
74620;SDS011;63125;47.546;19.254;2022-09-20T03:04:20;8.13;;;5.17;;
74620;SDS011;63125;47.546;19.254;2022-09-20T03:07:00;9.50;;;5.45;;
74620;SDS011;63125;47.546;19.254;2022-09-20T03:09:34;7.78;;;4.95;;
74620;SDS011;63125;47.546;19.254;2022-09-20T03:14:52;10.18;;;5.30;;
74620;SDS011;63125;47.546;19.254;2022-09-20T03:19:49;14.00;;;5.90;;
74620;SDS011;63125;47.546;19.254;2022-09-20T03:32:33;13.68;;;10.25;;
74620;SDS011;63125;47.546;19.254;2022-09-20T03:48:35;38.10;;;27.33;;
74620;SDS011;63125;47.546;19.254;2022-09-20T03:51:21;30.25;;;21.80;;
74620;SDS011;63125;47.546;19.254;2022-09-20T04:06:17;8.40;;;6.80;;
74620;SDS011;63125;47.546;19.254;2022-09-20T04:11:39;8.07;;;5.15;;
74620;SDS011;63125;47.546;19.254;2022-09-20T04:14:13;10.07;;;5.93;;
74620;SDS011;63125;47.546;19.254;2022-09-20T04:16:42;11.50;;;6.43;;
74620;SDS011;63125;47.546;19.254;2022-09-20T04:19:11;10.98;;;6.68;;
74620;SDS011;63125;47.546;19.254;2022-09-20T04:21:50;10.82;;;6.75;;
74620;SDS011;63125;47.546;19.254;2022-09-20T04:27:16;11.80;;;6.60;;
74620;SDS011;63125;47.546;19.254;2022-09-20T04:32:23;17.95;;;10.93;;
74620;SDS011;63125;47.546;19.254;2022-09-20T04:35:03;21.02;;;15.45;;
74620;SDS011;63125;47.546;19.254;2022-09-20T04:37:48;17.52;;;14.13;;
74620;SDS011;63125;47.546;19.254;2022-09-20T04:45:53;50.95;;;35.47;;
74620;SDS011;63125;47.546;19.254;2022-09-20T05:03:38;43.08;;;31.40;;
74620;SDS011;63125;47.546;19.254;2022-09-20T05:06:19;36.88;;;26.65;;
74620;SDS011;63125;47.546;19.254;2022-09-20T05:19:30;13.38;;;8.02;;
74620;SDS011;63125;47.546;19.254;2022-09-20T05:29:50;13.30;;;6.43;;
74620;SDS011;63125;47.546;19.254;2022-09-20T05:32:20;14.82;;;6.03;;
74620;SDS011;63125;47.546;19.254;2022-09-20T05:40:17;11.43;;;9.85;;
74620;SDS011;63125;47.546;19.254;2022-09-20T05:42:46;12.30;;;11.10;;
74620;SDS011;63125;47.546;19.254;2022-09-20T05:58:49;5.78;;;3.30;;
74620;SDS011;63125;47.546;19.254;2022-09-20T06:04:44;6.10;;;2.40;;
74620;SDS011;63125;47.546;19.254;2022-09-20T06:06:48;5.70;;;2.35;;
74620;SDS011;63125;47.546;19.254;2022-09-20T06:11:59;5.30;;;2.17;;
74620;SDS011;63125;47.546;19.254;2022-09-20T06:22:23;6.77;;;2.60;;
74620;SDS011;63125;47.546;19.254;2022-09-20T06:27:26;7.10;;;1.80;;
74620;SDS011;63125;47.546;19.254;2022-09-20T06:29:54;4.85;;;2.10;;
74620;SDS011;63125;47.546;19.254;2022-09-20T06:32:22;4.35;;;1.77;;
74620;SDS011;63125;47.546;19.254;2022-09-20T06:34:47;3.55;;;1.67;;
74620;SDS011;63125;47.546;19.254;2022-09-20T06:42:46;7.05;;;1.40;;
74620;SDS011;63125;47.546;19.254;2022-09-20T06:45:12;6.30;;;1.70;;
74620;SDS011;63125;47.546;19.254;2022-09-20T06:47:37;4.30;;;1.57;;
74620;SDS011;63125;47.546;19.254;2022-09-20T06:50:02;4.57;;;1.60;;
74620;SDS011;63125;47.546;19.254;2022-09-20T06:52:27;5.50;;;1.60;;
74620;SDS011;63125;47.546;19.254;2022-09-20T06:54:53;3.50;;;1.33;;
74620;SDS011;63125;47.546;19.254;2022-09-20T06:57:21;3.33;;;1.55;;
74620;SDS011;63125;47.546;19.254;2022-09-20T06:59:48;4.28;;;1.70;;
74620;SDS011;63125;47.546;19.254;2022-09-20T07:02:13;5.87;;;1.73;;
74620;SDS011;63125;47.546;19.254;2022-09-20T07:04:38;6.70;;;1.70;;
74620;SDS011;63125;47.546;19.254;2022-09-20T07:07:04;4.32;;;2.10;;
74620;SDS011;63125;47.546;19.254;2022-09-20T07:09:29;5.25;;;2.10;;
74620;SDS011;63125;47.546;19.254;2022-09-20T07:11:55;4.53;;;1.80;;
74620;SDS011;63125;47.546;19.254;2022-09-20T07:14:21;5.18;;;2.40;;
74620;SDS011;63125;47.546;19.254;2022-09-20T07:16:46;7.78;;;1.85;;
74620;SDS011;63125;47.546;19.254;2022-09-20T07:19:12;4.93;;;1.90;;
74620;SDS011;63125;47.546;19.254;2022-09-20T07:21:37;6.45;;;2.10;;
74620;SDS011;63125;47.546;19.254;2022-09-20T07:24:02;5.03;;;1.75;;
74620;SDS011;63125;47.546;19.254;2022-09-20T07:26:28;5.43;;;1.77;;
74620;SDS011;63125;47.546;19.254;2022-09-20T07:28:54;6.25;;;2.13;;
74620;SDS011;63125;47.546;19.254;2022-09-20T07:31:20;3.97;;;1.63;;
74620;SDS011;63125;47.546;19.254;2022-09-20T07:33:46;3.55;;;1.52;;
74620;SDS011;63125;47.546;19.254;2022-09-20T07:36:12;3.90;;;1.90;;
74620;SDS011;63125;47.546;19.254;2022-09-20T07:38:38;3.95;;;1.70;;
74620;SDS011;63125;47.546;19.254;2022-09-20T07:41:03;5.80;;;1.67;;
74620;SDS011;63125;47.546;19.254;2022-09-20T07:43:29;4.50;;;1.63;;
74620;SDS011;63125;47.546;19.254;2022-09-20T07:45:55;4.78;;;1.67;;
74620;SDS011;63125;47.546;19.254;2022-09-20T07:48:22;5.13;;;1.67;;
74620;SDS011;63125;47.546;19.254;2022-09-20T07:50:53;4.70;;;2.00;;
74620;SDS011;63125;47.546;19.254;2022-09-20T07:53:19;3.17;;;1.50;;
74620;SDS011;63125;47.546;19.254;2022-09-20T07:55:54;4.57;;;1.70;;
74620;SDS011;63125;47.546;19.254;2022-09-20T07:58:20;6.93;;;1.70;;
74620;SDS011;63125;47.546;19.254;2022-09-20T08:00:50;3.70;;;1.50;;
74620;SDS011;63125;47.546;19.254;2022-09-20T08:03:15;5.93;;;1.85;;
74620;SDS011;63125;47.546;19.254;2022-09-20T08:05:40;3.42;;;1.50;;
74620;SDS011;63125;47.546;19.254;2022-09-20T08:08:06;7.87;;;1.70;;
74620;SDS011;63125;47.546;19.254;2022-09-20T08:10:31;7.75;;;1.67;;
74620;SDS011;63125;47.546;19.254;2022-09-20T08:12:58;5.80;;;1.95;;
74620;SDS011;63125;47.546;19.254;2022-09-20T08:15:23;5.57;;;1.70;;
74620;SDS011;63125;47.546;19.254;2022-09-20T08:17:49;4.68;;;1.70;;
74620;SDS011;63125;47.546;19.254;2022-09-20T08:20:14;3.67;;;1.73;;
74620;SDS011;63125;47.546;19.254;2022-09-20T08:22:39;4.25;;;1.70;;
74620;SDS011;63125;47.546;19.254;2022-09-20T08:25:07;5.13;;;1.70;;
74620;SDS011;63125;47.546;19.254;2022-09-20T08:27:32;3.55;;;1.52;;
74620;SDS011;63125;47.546;19.254;2022-09-20T08:29:57;4.95;;;1.60;;
74620;SDS011;63125;47.546;19.254;2022-09-20T08:32:23;4.18;;;1.60;;
74620;SDS011;63125;47.546;19.254;2022-09-20T08:34:48;5.80;;;1.70;;
74620;SDS011;63125;47.546;19.254;2022-09-20T08:37:14;8.47;;;1.60;;
74620;SDS011;63125;47.546;19.254;2022-09-20T08:39:39;7.33;;;1.37;;
74620;SDS011;63125;47.546;19.254;2022-09-20T08:42:17;3.33;;;1.73;;
74620;SDS011;63125;47.546;19.254;2022-09-20T08:44:47;5.85;;;1.30;;
74620;SDS011;63125;47.546;19.254;2022-09-20T08:47:18;3.45;;;1.85;;
74620;SDS011;63125;47.546;19.254;2022-09-20T08:49:45;4.20;;;1.50;;
74620;SDS011;63125;47.546;19.254;2022-09-20T08:52:13;5.13;;;1.58;;
74620;SDS011;63125;47.546;19.254;2022-09-20T08:54:40;6.22;;;1.65;;
74620;SDS011;63125;47.546;19.254;2022-09-20T08:57:14;4.65;;;1.60;;
74620;SDS011;63125;47.546;19.254;2022-09-20T08:59:39;4.10;;;1.50;;
74620;SDS011;63125;47.546;19.254;2022-09-20T09:02:07;6.20;;;1.77;;
74620;SDS011;63125;47.546;19.254;2022-09-20T09:04:37;4.00;;;1.58;;
74620;SDS011;63125;47.546;19.254;2022-09-20T09:07:02;6.43;;;1.67;;
74620;SDS011;63125;47.546;19.254;2022-09-20T09:09:28;2.50;;;1.40;;
74620;SDS011;63125;47.546;19.254;2022-09-20T09:11:54;4.60;;;2.13;;
74620;SDS011;63125;47.546;19.254;2022-09-20T09:14:25;7.93;;;2.92;;
74620;SDS011;63125;47.546;19.254;2022-09-20T09:17:09;4.47;;;1.70;;
74620;SDS011;63125;47.546;19.254;2022-09-20T09:19:49;5.70;;;2.17;;
74620;SDS011;63125;47.546;19.254;2022-09-20T09:23:01;6.93;;;3.50;;
74620;SDS011;63125;47.546;19.254;2022-09-20T09:25:23;7.05;;;2.67;;
74620;SDS011;63125;47.546;19.254;2022-09-20T09:30:37;5.43;;;1.60;;
74620;SDS011;63125;47.546;19.254;2022-09-20T09:35:44;2.53;;;1.33;;
74620;SDS011;63125;47.546;19.254;2022-09-20T09:38:17;2.70;;;1.20;;
74620;SDS011;63125;47.546;19.254;2022-09-20T09:40:53;2.63;;;1.40;;
74620;SDS011;63125;47.546;19.254;2022-09-20T09:43:23;3.00;;;1.50;;
74620;SDS011;63125;47.546;19.254;2022-09-20T09:45:52;3.22;;;1.40;;
74620;SDS011;63125;47.546;19.254;2022-09-20T09:50:46;3.00;;;1.30;;
74620;SDS011;63125;47.546;19.254;2022-09-20T09:53:13;5.20;;;1.65;;
74620;SDS011;63125;47.546;19.254;2022-09-20T09:58:16;4.13;;;1.45;;
74620;SDS011;63125;47.546;19.254;2022-09-20T10:00:48;3.90;;;1.63;;
74620;SDS011;63125;47.546;19.254;2022-09-20T10:08:38;5.35;;;1.38;;
74620;SDS011;63125;47.546;19.254;2022-09-20T10:18:59;3.13;;;1.27;;
74620;SDS011;63125;47.546;19.254;2022-09-20T10:30:21;2.13;;;1.20;;
74620;SDS011;63125;47.546;19.254;2022-09-20T10:32:59;3.47;;;1.13;;
74620;SDS011;63125;47.546;19.254;2022-09-20T10:48:45;4.93;;;1.20;;
74620;SDS011;63125;47.546;19.254;2022-09-20T10:56:29;7.10;;;1.80;;
74620;SDS011;63125;47.546;19.254;2022-09-20T11:04:28;5.53;;;1.30;;
74620;SDS011;63125;47.546;19.254;2022-09-20T11:07:09;3.15;;;1.20;;
74620;SDS011;63125;47.546;19.254;2022-09-20T11:09:42;5.38;;;1.08;;
74620;SDS011;63125;47.546;19.254;2022-09-20T11:12:11;2.58;;;1.20;;
74620;SDS011;63125;47.546;19.254;2022-09-20T11:14:49;5.50;;;1.42;;
74620;SDS011;63125;47.546;19.254;2022-09-20T11:17:24;2.90;;;1.20;;
74620;SDS011;63125;47.546;19.254;2022-09-20T11:20:02;5.15;;;1.02;;
74620;SDS011;63125;47.546;19.254;2022-09-20T11:25:14;3.50;;;0.98;;
74620;SDS011;63125;47.546;19.254;2022-09-20T11:27:42;3.10;;;1.10;;
74620;SDS011;63125;47.546;19.254;2022-09-20T11:30:19;2.38;;;1.00;;
74620;SDS011;63125;47.546;19.254;2022-09-20T11:37:36;2.37;;;1.00;;
74620;SDS011;63125;47.546;19.254;2022-09-20T11:40:10;3.40;;;1.20;;
74620;SDS011;63125;47.546;19.254;2022-09-20T11:42:37;3.72;;;0.80;;
74620;SDS011;63125;47.546;19.254;2022-09-20T11:45:04;2.35;;;0.90;;
74620;SDS011;63125;47.546;19.254;2022-09-20T11:47:34;8.80;;;1.50;;
74620;SDS011;63125;47.546;19.254;2022-09-20T11:53:07;2.90;;;1.05;;
74620;SDS011;63125;47.546;19.254;2022-09-20T11:56:07;4.60;;;1.20;;
74620;SDS011;63125;47.546;19.254;2022-09-20T11:58:25;2.90;;;1.27;;
74620;SDS011;63125;47.546;19.254;2022-09-20T12:00:54;2.92;;;1.33;;
74620;SDS011;63125;47.546;19.254;2022-09-20T12:03:22;4.22;;;1.20;;
74620;SDS011;63125;47.546;19.254;2022-09-20T12:05:54;2.50;;;1.00;;
74620;SDS011;63125;47.546;19.254;2022-09-20T12:08:21;9.23;;;1.52;;
74620;SDS011;63125;47.546;19.254;2022-09-20T12:11:25;5.45;;;1.15;;
74620;SDS011;63125;47.546;19.254;2022-09-20T12:13:41;4.75;;;1.33;;
74620;SDS011;63125;47.546;19.254;2022-09-20T12:16:16;2.08;;;0.98;;
74620;SDS011;63125;47.546;19.254;2022-09-20T12:21:23;4.27;;;1.50;;
74620;SDS011;63125;47.546;19.254;2022-09-20T12:28:44;5.07;;;1.20;;
74620;SDS011;63125;47.546;19.254;2022-09-20T12:36:43;3.05;;;1.10;;
74620;SDS011;63125;47.546;19.254;2022-09-20T12:55:09;12.85;;;5.35;;
74620;SDS011;63125;47.546;19.254;2022-09-20T12:57:35;5.70;;;2.05;;
74620;SDS011;63125;47.546;19.254;2022-09-20T13:00:00;6.15;;;1.40;;
74620;SDS011;63125;47.546;19.254;2022-09-20T13:05:41;2.70;;;0.80;;
74620;SDS011;63125;47.546;19.254;2022-09-20T13:08:08;2.13;;;0.90;;
74620;SDS011;63125;47.546;19.254;2022-09-20T13:10:38;2.20;;;0.98;;
74620;SDS011;63125;47.546;19.254;2022-09-20T13:19:05;2.88;;;0.95;;
74620;SDS011;63125;47.546;19.254;2022-09-20T13:21:39;3.35;;;0.90;;
74620;SDS011;63125;47.546;19.254;2022-09-20T13:24:05;3.35;;;1.10;;
74620;SDS011;63125;47.546;19.254;2022-09-20T13:26:38;2.17;;;1.20;;
74620;SDS011;63125;47.546;19.254;2022-09-20T13:29:05;7.10;;;1.10;;
74620;SDS011;63125;47.546;19.254;2022-09-20T13:31:32;4.57;;;1.20;;
74620;SDS011;63125;47.546;19.254;2022-09-20T13:36:57;3.35;;;1.30;;
74620;SDS011;63125;47.546;19.254;2022-09-20T13:39:24;3.60;;;1.35;;
74620;SDS011;63125;47.546;19.254;2022-09-20T13:41:50;4.50;;;1.42;;
74620;SDS011;63125;47.546;19.254;2022-09-20T13:44:16;3.75;;;1.50;;
74620;SDS011;63125;47.546;19.254;2022-09-20T13:46:43;2.58;;;1.40;;
74620;SDS011;63125;47.546;19.254;2022-09-20T13:49:12;4.13;;;1.60;;
74620;SDS011;63125;47.546;19.254;2022-09-20T13:51:38;4.57;;;1.50;;
74620;SDS011;63125;47.546;19.254;2022-09-20T13:54:17;3.83;;;1.60;;
74620;SDS011;63125;47.546;19.254;2022-09-20T13:56:43;6.32;;;1.60;;
74620;SDS011;63125;47.546;19.254;2022-09-20T13:59:09;4.82;;;2.20;;
74620;SDS011;63125;47.546;19.254;2022-09-20T14:01:36;10.73;;;2.72;;
74620;SDS011;63125;47.546;19.254;2022-09-20T14:04:03;7.95;;;3.22;;
74620;SDS011;63125;47.546;19.254;2022-09-20T14:06:29;3.38;;;1.55;;
74620;SDS011;63125;47.546;19.254;2022-09-20T14:08:55;4.53;;;2.03;;
74620;SDS011;63125;47.546;19.254;2022-09-20T14:11:23;4.90;;;2.20;;
74620;SDS011;63125;47.546;19.254;2022-09-20T14:13:51;6.35;;;2.55;;
74620;SDS011;63125;47.546;19.254;2022-09-20T14:16:17;3.35;;;1.55;;
74620;SDS011;63125;47.546;19.254;2022-09-20T14:18:44;6.75;;;2.90;;
74620;SDS011;63125;47.546;19.254;2022-09-20T14:21:12;6.20;;;2.40;;
74620;SDS011;63125;47.546;19.254;2022-09-20T14:23:51;3.47;;;1.17;;
74620;SDS011;63125;47.546;19.254;2022-09-20T14:28:46;3.85;;;1.55;;
74620;SDS011;63125;47.546;19.254;2022-09-20T14:31:27;4.47;;;1.20;;
74620;SDS011;63125;47.546;19.254;2022-09-20T14:33:55;1.58;;;0.80;;
74620;SDS011;63125;47.546;19.254;2022-09-20T14:36:28;3.35;;;1.33;;
74620;SDS011;63125;47.546;19.254;2022-09-20T14:38:55;4.45;;;1.60;;
74620;SDS011;63125;47.546;19.254;2022-09-20T14:41:30;3.60;;;1.33;;
74620;SDS011;63125;47.546;19.254;2022-09-20T14:43:56;5.50;;;1.08;;
74620;SDS011;63125;47.546;19.254;2022-09-20T14:46:27;4.03;;;1.17;;
74620;SDS011;63125;47.546;19.254;2022-09-20T14:48:53;2.83;;;0.80;;
74620;SDS011;63125;47.546;19.254;2022-09-20T14:51:20;2.30;;;1.10;;
74620;SDS011;63125;47.546;19.254;2022-09-20T14:56:47;2.90;;;1.00;;
74620;SDS011;63125;47.546;19.254;2022-09-20T14:59:27;2.85;;;1.20;;
74620;SDS011;63125;47.546;19.254;2022-09-20T15:04:24;9.10;;;2.30;;
74620;SDS011;63125;47.546;19.254;2022-09-20T15:06:51;9.98;;;5.00;;
74620;SDS011;63125;47.546;19.254;2022-09-20T15:09:17;7.20;;;2.45;;
74620;SDS011;63125;47.546;19.254;2022-09-20T15:11:43;18.90;;;10.30;;
74620;SDS011;63125;47.546;19.254;2022-09-20T15:14:08;16.55;;;8.00;;
74620;SDS011;63125;47.546;19.254;2022-09-20T15:16:33;7.93;;;4.10;;
74620;SDS011;63125;47.546;19.254;2022-09-20T15:18:59;35.97;;;12.40;;
74620;SDS011;63125;47.546;19.254;2022-09-20T15:21:25;18.20;;;6.77;;
74620;SDS011;63125;47.546;19.254;2022-09-20T15:23:50;4.65;;;2.33;;
74620;SDS011;63125;47.546;19.254;2022-09-20T15:26:16;6.55;;;3.20;;
74620;SDS011;63125;47.546;19.254;2022-09-20T15:28:41;7.07;;;2.55;;
74620;SDS011;63125;47.546;19.254;2022-09-20T15:31:08;6.67;;;3.90;;
74620;SDS011;63125;47.546;19.254;2022-09-20T15:33:33;6.22;;;3.80;;
74620;SDS011;63125;47.546;19.254;2022-09-20T15:36:00;11.65;;;4.90;;
74620;SDS011;63125;47.546;19.254;2022-09-20T15:38:26;6.07;;;2.70;;
74620;SDS011;63125;47.546;19.254;2022-09-20T15:40:51;7.50;;;1.85;;
74620;SDS011;63125;47.546;19.254;2022-09-20T15:43:18;6.30;;;2.17;;
74620;SDS011;63125;47.546;19.254;2022-09-20T15:45:46;6.55;;;1.80;;
74620;SDS011;63125;47.546;19.254;2022-09-20T15:48:14;4.55;;;1.50;;
74620;SDS011;63125;47.546;19.254;2022-09-20T15:50:39;5.78;;;1.48;;
74620;SDS011;63125;47.546;19.254;2022-09-20T15:53:07;2.55;;;1.17;;
74620;SDS011;63125;47.546;19.254;2022-09-20T15:55:35;3.67;;;1.00;;
74620;SDS011;63125;47.546;19.254;2022-09-20T15:58:00;3.83;;;1.20;;
74620;SDS011;63125;47.546;19.254;2022-09-20T16:00:26;2.53;;;1.15;;
74620;SDS011;63125;47.546;19.254;2022-09-20T16:02:51;5.97;;;1.53;;
74620;SDS011;63125;47.546;19.254;2022-09-20T16:05:16;6.00;;;2.72;;
74620;SDS011;63125;47.546;19.254;2022-09-20T16:07:41;18.20;;;4.10;;
74620;SDS011;63125;47.546;19.254;2022-09-20T16:10:07;6.27;;;2.87;;
74620;SDS011;63125;47.546;19.254;2022-09-20T16:12:32;6.55;;;2.72;;
74620;SDS011;63125;47.546;19.254;2022-09-20T16:14:57;7.90;;;2.65;;
74620;SDS011;63125;47.546;19.254;2022-09-20T16:17:23;5.47;;;2.50;;
74620;SDS011;63125;47.546;19.254;2022-09-20T16:20:08;5.28;;;1.92;;
74620;SDS011;63125;47.546;19.254;2022-09-20T16:22:34;4.63;;;2.22;;
74620;SDS011;63125;47.546;19.254;2022-09-20T16:24:59;4.67;;;2.37;;
74620;SDS011;63125;47.546;19.254;2022-09-20T16:27:25;5.82;;;2.30;;
74620;SDS011;63125;47.546;19.254;2022-09-20T16:29:50;6.05;;;2.10;;
74620;SDS011;63125;47.546;19.254;2022-09-20T16:32:16;8.18;;;2.42;;
74620;SDS011;63125;47.546;19.254;2022-09-20T16:34:41;7.60;;;2.55;;
74620;SDS011;63125;47.546;19.254;2022-09-20T16:37:10;5.38;;;2.50;;
74620;SDS011;63125;47.546;19.254;2022-09-20T16:39:38;4.88;;;2.33;;
74620;SDS011;63125;47.546;19.254;2022-09-20T16:42:05;4.47;;;2.25;;
74620;SDS011;63125;47.546;19.254;2022-09-20T16:44:32;6.85;;;2.35;;
74620;SDS011;63125;47.546;19.254;2022-09-20T16:46:57;7.00;;;3.03;;
74620;SDS011;63125;47.546;19.254;2022-09-20T16:49:23;5.05;;;2.83;;
74620;SDS011;63125;47.546;19.254;2022-09-20T16:51:50;8.30;;;3.53;;
74620;SDS011;63125;47.546;19.254;2022-09-20T16:54:15;7.80;;;3.10;;
74620;SDS011;63125;47.546;19.254;2022-09-20T16:56:42;10.85;;;3.95;;
74620;SDS011;63125;47.546;19.254;2022-09-20T16:59:09;10.43;;;5.00;;
74620;SDS011;63125;47.546;19.254;2022-09-20T17:01:35;9.65;;;5.03;;
74620;SDS011;63125;47.546;19.254;2022-09-20T17:04:01;11.88;;;4.80;;
74620;SDS011;63125;47.546;19.254;2022-09-20T17:06:29;17.08;;;4.78;;
74620;SDS011;63125;47.546;19.254;2022-09-20T17:08:55;7.28;;;4.30;;
74620;SDS011;63125;47.546;19.254;2022-09-20T17:11:23;8.73;;;4.40;;
74620;SDS011;63125;47.546;19.254;2022-09-20T17:13:50;7.45;;;4.00;;
74620;SDS011;63125;47.546;19.254;2022-09-20T17:16:16;8.00;;;4.65;;
74620;SDS011;63125;47.546;19.254;2022-09-20T17:18:42;11.75;;;4.70;;
74620;SDS011;63125;47.546;19.254;2022-09-20T17:21:09;10.68;;;4.90;;
74620;SDS011;63125;47.546;19.254;2022-09-20T17:23:34;10.60;;;4.97;;
74620;SDS011;63125;47.546;19.254;2022-09-20T17:26:04;9.13;;;4.55;;
74620;SDS011;63125;47.546;19.254;2022-09-20T17:28:34;10.15;;;7.15;;
74620;SDS011;63125;47.546;19.254;2022-09-20T17:30:59;10.15;;;3.78;;
74620;SDS011;63125;47.546;19.254;2022-09-20T17:33:25;5.65;;;3.80;;
74620;SDS011;63125;47.546;19.254;2022-09-20T17:35:53;9.77;;;4.28;;
74620;SDS011;63125;47.546;19.254;2022-09-20T17:38:19;7.30;;;5.00;;
74620;SDS011;63125;47.546;19.254;2022-09-20T17:40:45;7.35;;;4.45;;
74620;SDS011;63125;47.546;19.254;2022-09-20T17:43:10;9.43;;;6.50;;
74620;SDS011;63125;47.546;19.254;2022-09-20T17:45:35;32.05;;;21.55;;
74620;SDS011;63125;47.546;19.254;2022-09-20T17:48:01;38.95;;;21.88;;
74620;SDS011;63125;47.546;19.254;2022-09-20T17:50:27;79.00;;;49.70;;
74620;SDS011;63125;47.546;19.254;2022-09-20T17:52:52;50.55;;;34.67;;
74620;SDS011;63125;47.546;19.254;2022-09-20T17:55:17;19.85;;;12.32;;
74620;SDS011;63125;47.546;19.254;2022-09-20T17:57:43;11.80;;;6.45;;
74620;SDS011;63125;47.546;19.254;2022-09-20T18:00:09;11.32;;;4.78;;
74620;SDS011;63125;47.546;19.254;2022-09-20T18:02:34;12.20;;;5.60;;
74620;SDS011;63125;47.546;19.254;2022-09-20T18:05:00;11.40;;;5.60;;
74620;SDS011;63125;47.546;19.254;2022-09-20T18:07:25;10.75;;;6.13;;
74620;SDS011;63125;47.546;19.254;2022-09-20T18:09:50;12.48;;;6.85;;
74620;SDS011;63125;47.546;19.254;2022-09-20T18:12:15;11.35;;;7.13;;
74620;SDS011;63125;47.546;19.254;2022-09-20T18:14:41;13.33;;;6.87;;
74620;SDS011;63125;47.546;19.254;2022-09-20T18:17:06;10.97;;;6.83;;
74620;SDS011;63125;47.546;19.254;2022-09-20T18:19:32;10.80;;;6.40;;
74620;SDS011;63125;47.546;19.254;2022-09-20T18:21:58;13.90;;;6.35;;
74620;SDS011;63125;47.546;19.254;2022-09-20T18:24:23;9.57;;;5.80;;
74620;SDS011;63125;47.546;19.254;2022-09-20T18:26:49;9.82;;;5.88;;
74620;SDS011;63125;47.546;19.254;2022-09-20T18:29:15;9.73;;;6.60;;
74620;SDS011;63125;47.546;19.254;2022-09-20T18:31:44;10.00;;;5.63;;
74620;SDS011;63125;47.546;19.254;2022-09-20T18:34:13;11.02;;;6.10;;
74620;SDS011;63125;47.546;19.254;2022-09-20T18:36:42;9.95;;;5.13;;
74620;SDS011;63125;47.546;19.254;2022-09-20T18:39:07;7.10;;;4.22;;
74620;SDS011;63125;47.546;19.254;2022-09-20T18:41:33;7.55;;;4.35;;
74620;SDS011;63125;47.546;19.254;2022-09-20T18:44:00;7.13;;;3.22;;
74620;SDS011;63125;47.546;19.254;2022-09-20T18:46:26;5.03;;;2.80;;
74620;SDS011;63125;47.546;19.254;2022-09-20T18:48:53;4.43;;;2.45;;
74620;SDS011;63125;47.546;19.254;2022-09-20T18:51:19;4.22;;;2.22;;
74620;SDS011;63125;47.546;19.254;2022-09-20T18:53:44;5.18;;;2.38;;
74620;SDS011;63125;47.546;19.254;2022-09-20T18:58:49;6.20;;;2.00;;
74620;SDS011;63125;47.546;19.254;2022-09-20T19:03:54;8.23;;;4.50;;
74620;SDS011;63125;47.546;19.254;2022-09-20T19:06:23;6.55;;;3.30;;
74620;SDS011;63125;47.546;19.254;2022-09-20T19:09:00;3.50;;;1.88;;
74620;SDS011;63125;47.546;19.254;2022-09-20T19:11:35;3.88;;;2.00;;
74620;SDS011;63125;47.546;19.254;2022-09-20T19:14:09;4.68;;;2.10;;
74620;SDS011;63125;47.546;19.254;2022-09-20T19:16:37;4.03;;;1.80;;
74620;SDS011;63125;47.546;19.254;2022-09-20T19:19:08;4.50;;;1.98;;
74620;SDS011;63125;47.546;19.254;2022-09-20T19:26:38;14.13;;;2.10;;
74620;SDS011;63125;47.546;19.254;2022-09-20T19:29:10;4.60;;;2.00;;
74620;SDS011;63125;47.546;19.254;2022-09-20T19:31:39;5.55;;;2.15;;
74620;SDS011;63125;47.546;19.254;2022-09-20T19:34:06;5.22;;;2.60;;
74620;SDS011;63125;47.546;19.254;2022-09-20T19:52:19;6.95;;;3.35;;
74620;SDS011;63125;47.546;19.254;2022-09-20T19:54:45;6.38;;;3.42;;
74620;SDS011;63125;47.546;19.254;2022-09-20T19:57:21;5.82;;;2.80;;
74620;SDS011;63125;47.546;19.254;2022-09-20T19:59:46;7.28;;;2.85;;
74620;SDS011;63125;47.546;19.254;2022-09-20T20:02:13;4.97;;;2.78;;
74620;SDS011;63125;47.546;19.254;2022-09-20T20:04:38;5.20;;;2.47;;
74620;SDS011;63125;47.546;19.254;2022-09-20T20:07:14;8.88;;;2.90;;
74620;SDS011;63125;47.546;19.254;2022-09-20T20:09:44;4.70;;;2.60;;
74620;SDS011;63125;47.546;19.254;2022-09-20T20:12:19;4.57;;;2.40;;
74620;SDS011;63125;47.546;19.254;2022-09-20T20:17:34;4.88;;;2.15;;